Delray Beach, Florida

5:57 PM EDT on July 29, 2016 (GMT -0400)
RAWS | | Change Station

Elev 17 ft 26.50 °N, 80.22 °W | Updated 1 hour ago

Clear
Clear
90.0 °F
Feels Like 98 °F
N
7.0
Wind Variable Wind from ESE
Gusts 0.0 mph

Today
High -- | Low -- °F
--% Chance of Precip.
Yesterday
High -- | Low -- °F
Precip. -- in
Pressure 30.01 in
Visibility 10.0 miles
Clouds Clear
Heat Index 98 °F
Dew Point 73.0 °F
Humidity 57%
Rainfall in
Snow Depth Not available.
6:44 AM 8:09 PM
Waning Crescent, 19% visible
METAR KPMP 292153Z 12007KT 10SM CLR 32/24 A3001 RMK AO2 LTG DSNT SW AND W SLP163 T03170239
Pressure 30.01 in
Visibility 10.0 miles
Clouds Clear
Heat Index 98 °F
Dew Point 73.0 °F
Humidity 57%
Rainfall in
Snow Depth Not available.
6:44 AM 8:09 PM
Waning Crescent, 19% visible
METAR KPMP 292153Z 12007KT 10SM CLR 32/24 A3001 RMK AO2 LTG DSNT SW AND W SLP163 T03170239

10-Day Weather Forecast

Almanac

Astronomy

Jul. 29, 2016 Rise Set
Actual Time
Civil Twilight
Nautical Twilight
Astronomical Twilight
Moon
Length of Visible Light
Length of Day
Tomorrow will be .
, % of the Moon is Illuminated

Today's Extremes

State Highs State Lows

Community

WunderPhotos

Upload Photos

1,928,423 photos uploaded!

WunderBlog® & News

Nearby

Air Quality

  Air Quality AQ Index Pollutant
Not available.

Snow Depth

Station Depth Elevation

Earthquake Activity

City Distance Mag. Time & Date
Minimum magnitude displayed is 2.5.

Coastal Water Temperatures

Place Temperature

Stations

Nearby Weather Stations

Station Location Temp. Windchill Dew Point Humidity Wind Precip. Elev Updated Type
                   

Watches & Warnings

There are currently no watches in effect.